sensor_id;sensor_type;location;lat;lon;timestamp;temperature;humidity
52543;DHT22;38449;52.696;6.186;2024-01-27T00:02:15;3.70;99.90
52543;DHT22;38449;52.696;6.186;2024-01-27T00:04:42;3.50;99.90
52543;DHT22;38449;52.696;6.186;2024-01-27T00:07:08;3.40;99.90
52543;DHT22;38449;52.696;6.186;2024-01-27T00:09:34;3.50;99.90
52543;DHT22;38449;52.696;6.186;2024-01-27T00:12:01;3.40;99.90
52543;DHT22;38449;52.696;6.186;2024-01-27T00:14:27;3.40;99.90
52543;DHT22;38449;52.696;6.186;2024-01-27T00:16:54;3.60;99.90
52543;DHT22;38449;52.696;6.186;2024-01-27T00:19:20;3.60;99.90
52543;DHT22;38449;52.696;6.186;2024-01-27T00:21:46;3.50;99.90
52543;DHT22;38449;52.696;6.186;2024-01-27T00:24:13;3.50;99.90
52543;DHT22;38449;52.696;6.186;2024-01-27T00:26:40;3.40;99.90
52543;DHT22;38449;52.696;6.186;2024-01-27T00:29:06;3.30;99.90
52543;DHT22;38449;52.696;6.186;2024-01-27T00:31:32;3.40;99.90
52543;DHT22;38449;52.696;6.186;2024-01-27T00:33:58;3.30;99.90
52543;DHT22;38449;52.696;6.186;2024-01-27T00:36:26;3.30;99.90
52543;DHT22;38449;52.696;6.186;2024-01-27T00:38:53;3.50;99.90
52543;DHT22;38449;52.696;6.186;2024-01-27T00:41:19;3.40;99.90
52543;DHT22;38449;52.696;6.186;2024-01-27T00:43:46;3.30;99.90
52543;DHT22;38449;52.696;6.186;2024-01-27T00:46:12;3.20;99.90
52543;DHT22;38449;52.696;6.186;2024-01-27T00:48:38;3.20;99.90
52543;DHT22;38449;52.696;6.186;2024-01-27T00:51:04;3.20;99.90
52543;DHT22;38449;52.696;6.186;2024-01-27T00:53:31;3.20;99.90
52543;DHT22;38449;52.696;6.186;2024-01-27T00:55:57;3.00;99.90
52543;DHT22;38449;52.696;6.186;2024-01-27T00:58:23;2.90;99.90
52543;DHT22;38449;52.696;6.186;2024-01-27T01:00:50;3.00;99.90
52543;DHT22;38449;52.696;6.186;2024-01-27T01:03:16;2.80;99.90
52543;DHT22;38449;52.696;6.186;2024-01-27T01:05:43;3.00;99.90
52543;DHT22;38449;52.696;6.186;2024-01-27T01:08:10;2.80;99.90
52543;DHT22;38449;52.696;6.186;2024-01-27T01:10:36;2.80;99.90
52543;DHT22;38449;52.696;6.186;2024-01-27T01:13:03;2.80;99.90
52543;DHT22;38449;52.696;6.186;2024-01-27T01:15:29;2.70;99.90
52543;DHT22;38449;52.696;6.186;2024-01-27T01:17:55;2.70;99.90
52543;DHT22;38449;52.696;6.186;2024-01-27T01:20:21;2.90;99.90
52543;DHT22;38449;52.696;6.186;2024-01-27T01:22:48;2.80;99.90
52543;DHT22;38449;52.696;6.186;2024-01-27T01:25:14;2.90;99.90
52543;DHT22;38449;52.696;6.186;2024-01-27T01:27:40;2.70;99.90
52543;DHT22;38449;52.696;6.186;2024-01-27T01:30:07;2.70;99.90
52543;DHT22;38449;52.696;6.186;2024-01-27T01:32:33;2.90;99.90
52543;DHT22;38449;52.696;6.186;2024-01-27T01:35:00;2.90;99.90
52543;DHT22;38449;52.696;6.186;2024-01-27T01:37:27;2.80;99.90
52543;DHT22;38449;52.696;6.186;2024-01-27T01:39:53;2.80;99.90
52543;DHT22;38449;52.696;6.186;2024-01-27T01:42:19;2.70;99.90
52543;DHT22;38449;52.696;6.186;2024-01-27T01:44:49;2.80;99.90
52543;DHT22;38449;52.696;6.186;2024-01-27T01:47:15;2.70;99.90
52543;DHT22;38449;52.696;6.186;2024-01-27T01:49:42;2.90;99.90
52543;DHT22;38449;52.696;6.186;2024-01-27T01:52:08;2.70;99.90
52543;DHT22;38449;52.696;6.186;2024-01-27T01:54:35;2.70;99.90
52543;DHT22;38449;52.696;6.186;2024-01-27T01:57:02;2.90;99.90
52543;DHT22;38449;52.696;6.186;2024-01-27T01:59:29;2.80;99.90
52543;DHT22;38449;52.696;6.186;2024-01-27T02:01:55;2.80;99.90
52543;DHT22;38449;52.696;6.186;2024-01-27T02:04:21;2.80;99.90
52543;DHT22;38449;52.696;6.186;2024-01-27T02:06:48;2.60;99.90
52543;DHT22;38449;52.696;6.186;2024-01-27T02:09:15;2.60;99.90
52543;DHT22;38449;52.696;6.186;2024-01-27T02:11:41;2.60;99.90
52543;DHT22;38449;52.696;6.186;2024-01-27T02:14:07;2.70;99.90
52543;DHT22;38449;52.696;6.186;2024-01-27T02:16:34;2.60;99.90
52543;DHT22;38449;52.696;6.186;2024-01-27T02:19:00;2.60;99.90
52543;DHT22;38449;52.696;6.186;2024-01-27T02:21:26;2.50;99.90
52543;DHT22;38449;52.696;6.186;2024-01-27T02:23:52;2.50;99.90
52543;DHT22;38449;52.696;6.186;2024-01-27T02:26:19;2.50;99.90
52543;DHT22;38449;52.696;6.186;2024-01-27T02:28:45;2.40;99.90
52543;DHT22;38449;52.696;6.186;2024-01-27T02:31:11;2.60;99.90
52543;DHT22;38449;52.696;6.186;2024-01-27T02:33:37;2.50;99.90
52543;DHT22;38449;52.696;6.186;2024-01-27T02:36:04;2.50;99.90
52543;DHT22;38449;52.696;6.186;2024-01-27T02:38:30;2.50;99.90
52543;DHT22;38449;52.696;6.186;2024-01-27T02:40:56;2.50;99.90
52543;DHT22;38449;52.696;6.186;2024-01-27T02:43:23;2.50;99.90
52543;DHT22;38449;52.696;6.186;2024-01-27T02:45:49;2.30;99.90
52543;DHT22;38449;52.696;6.186;2024-01-27T02:48:15;2.40;99.90
52543;DHT22;38449;52.696;6.186;2024-01-27T02:50:41;2.40;99.90
52543;DHT22;38449;52.696;6.186;2024-01-27T02:53:08;2.40;99.90
52543;DHT22;38449;52.696;6.186;2024-01-27T02:55:34;2.30;99.90
52543;DHT22;38449;52.696;6.186;2024-01-27T02:58:00;2.20;99.90
52543;DHT22;38449;52.696;6.186;2024-01-27T03:00:26;2.30;99.90
52543;DHT22;38449;52.696;6.186;2024-01-27T03:02:53;2.40;99.90
52543;DHT22;38449;52.696;6.186;2024-01-27T03:05:20;2.40;99.90
52543;DHT22;38449;52.696;6.186;2024-01-27T03:07:46;2.30;99.90
52543;DHT22;38449;52.696;6.186;2024-01-27T03:10:12;2.40;99.90
52543;DHT22;38449;52.696;6.186;2024-01-27T03:12:39;2.30;99.90
52543;DHT22;38449;52.696;6.186;2024-01-27T03:15:05;2.20;99.90
52543;DHT22;38449;52.696;6.186;2024-01-27T03:17:32;2.40;99.90
52543;DHT22;38449;52.696;6.186;2024-01-27T03:19:58;2.20;99.90
52543;DHT22;38449;52.696;6.186;2024-01-27T03:22:24;2.40;99.90
52543;DHT22;38449;52.696;6.186;2024-01-27T03:24:50;2.30;99.90
52543;DHT22;38449;52.696;6.186;2024-01-27T03:27:19;2.40;99.90
52543;DHT22;38449;52.696;6.186;2024-01-27T03:29:45;2.20;99.90
52543;DHT22;38449;52.696;6.186;2024-01-27T03:32:11;2.20;99.90
52543;DHT22;38449;52.696;6.186;2024-01-27T03:34:46;2.10;99.90
52543;DHT22;38449;52.696;6.186;2024-01-27T03:37:12;2.10;99.90
52543;DHT22;38449;52.696;6.186;2024-01-27T03:39:41;2.20;99.90
52543;DHT22;38449;52.696;6.186;2024-01-27T03:42:07;2.10;99.90
52543;DHT22;38449;52.696;6.186;2024-01-27T03:44:34;2.30;99.90
52543;DHT22;38449;52.696;6.186;2024-01-27T03:47:00;2.20;99.90
52543;DHT22;38449;52.696;6.186;2024-01-27T03:49:26;2.30;99.90
52543;DHT22;38449;52.696;6.186;2024-01-27T03:51:52;2.10;99.90
52543;DHT22;38449;52.696;6.186;2024-01-27T03:54:20;2.30;99.90
52543;DHT22;38449;52.696;6.186;2024-01-27T03:56:46;2.20;99.90
52543;DHT22;38449;52.696;6.186;2024-01-27T03:59:13;2.10;99.90
52543;DHT22;38449;52.696;6.186;2024-01-27T04:01:39;2.20;99.90
52543;DHT22;38449;52.696;6.186;2024-01-27T04:04:05;2.20;99.90
52543;DHT22;38449;52.696;6.186;2024-01-27T04:06:39;2.30;99.90
52543;DHT22;38449;52.696;6.186;2024-01-27T04:09:06;2.10;99.90
52543;DHT22;38449;52.696;6.186;2024-01-27T04:11:35;2.00;99.90
52543;DHT22;38449;52.696;6.186;2024-01-27T04:14:03;2.00;99.90
52543;DHT22;38449;52.696;6.186;2024-01-27T04:16:30;2.10;99.90
52543;DHT22;38449;52.696;6.186;2024-01-27T04:18:58;2.10;99.90
52543;DHT22;38449;52.696;6.186;2024-01-27T04:21:24;2.20;99.90
52543;DHT22;38449;52.696;6.186;2024-01-27T04:23:51;2.10;99.90
52543;DHT22;38449;52.696;6.186;2024-01-27T04:26:17;2.20;99.90
52543;DHT22;38449;52.696;6.186;2024-01-27T04:28:43;2.00;99.90
52543;DHT22;38449;52.696;6.186;2024-01-27T04:31:09;2.00;99.90
52543;DHT22;38449;52.696;6.186;2024-01-27T04:33:35;2.20;99.90
52543;DHT22;38449;52.696;6.186;2024-01-27T04:36:02;2.10;99.90
52543;DHT22;38449;52.696;6.186;2024-01-27T04:38:28;2.00;99.90
52543;DHT22;38449;52.696;6.186;2024-01-27T04:40:55;2.00;99.90
52543;DHT22;38449;52.696;6.186;2024-01-27T04:43:21;2.00;99.90
52543;DHT22;38449;52.696;6.186;2024-01-27T04:45:48;2.20;99.90
52543;DHT22;38449;52.696;6.186;2024-01-27T04:48:15;2.00;99.90
52543;DHT22;38449;52.696;6.186;2024-01-27T04:50:42;2.10;99.90
52543;DHT22;38449;52.696;6.186;2024-01-27T04:53:08;2.00;99.90
52543;DHT22;38449;52.696;6.186;2024-01-27T04:55:34;2.00;99.90
52543;DHT22;38449;52.696;6.186;2024-01-27T04:58:00;2.10;99.90
52543;DHT22;38449;52.696;6.186;2024-01-27T05:00:27;2.00;99.90
52543;DHT22;38449;52.696;6.186;2024-01-27T05:02:54;2.20;99.90
52543;DHT22;38449;52.696;6.186;2024-01-27T05:05:20;2.10;99.90
52543;DHT22;38449;52.696;6.186;2024-01-27T05:07:47;2.10;99.90
52543;DHT22;38449;52.696;6.186;2024-01-27T05:10:15;2.00;99.90
52543;DHT22;38449;52.696;6.186;2024-01-27T05:12:42;2.10;99.90
52543;DHT22;38449;52.696;6.186;2024-01-27T05:15:10;2.20;99.90
52543;DHT22;38449;52.696;6.186;2024-01-27T05:17:36;2.00;99.90
52543;DHT22;38449;52.696;6.186;2024-01-27T05:20:03;2.00;99.90
52543;DHT22;38449;52.696;6.186;2024-01-27T05:22:30;1.90;99.90
52543;DHT22;38449;52.696;6.186;2024-01-27T05:24:57;2.00;99.90
52543;DHT22;38449;52.696;6.186;2024-01-27T05:27:23;2.10;99.90
52543;DHT22;38449;52.696;6.186;2024-01-27T05:29:49;2.10;99.90
52543;DHT22;38449;52.696;6.186;2024-01-27T05:32:16;1.90;99.90
52543;DHT22;38449;52.696;6.186;2024-01-27T05:34:42;1.90;99.90
52543;DHT22;38449;52.696;6.186;2024-01-27T05:37:08;2.10;99.90
52543;DHT22;38449;52.696;6.186;2024-01-27T05:39:34;1.80;99.90
52543;DHT22;38449;52.696;6.186;2024-01-27T05:42:01;2.00;99.90
52543;DHT22;38449;52.696;6.186;2024-01-27T05:44:27;1.70;99.90
52543;DHT22;38449;52.696;6.186;2024-01-27T05:46:53;1.70;99.90
52543;DHT22;38449;52.696;6.186;2024-01-27T05:49:20;1.70;99.90
52543;DHT22;38449;52.696;6.186;2024-01-27T05:51:46;1.70;99.90
52543;DHT22;38449;52.696;6.186;2024-01-27T05:54:12;1.70;99.90
52543;DHT22;38449;52.696;6.186;2024-01-27T05:56:40;1.90;99.90
52543;DHT22;38449;52.696;6.186;2024-01-27T05:59:07;1.90;99.90
52543;DHT22;38449;52.696;6.186;2024-01-27T06:01:33;1.80;99.90
52543;DHT22;38449;52.696;6.186;2024-01-27T06:03:59;1.90;99.90
52543;DHT22;38449;52.696;6.186;2024-01-27T06:06:26;1.70;99.90
52543;DHT22;38449;52.696;6.186;2024-01-27T06:08:52;1.70;99.90
52543;DHT22;38449;52.696;6.186;2024-01-27T06:11:25;1.60;99.90
52543;DHT22;38449;52.696;6.186;2024-01-27T06:13:51;1.80;99.90
52543;DHT22;38449;52.696;6.186;2024-01-27T06:16:18;1.60;99.90
52543;DHT22;38449;52.696;6.186;2024-01-27T06:18:47;1.60;99.90
52543;DHT22;38449;52.696;6.186;2024-01-27T06:21:13;1.80;99.90
52543;DHT22;38449;52.696;6.186;2024-01-27T06:23:41;1.70;99.90
52543;DHT22;38449;52.696;6.186;2024-01-27T06:26:08;1.90;99.90
52543;DHT22;38449;52.696;6.186;2024-01-27T06:28:35;1.90;99.90
52543;DHT22;38449;52.696;6.186;2024-01-27T06:31:05;1.60;99.90
52543;DHT22;38449;52.696;6.186;2024-01-27T06:33:34;1.80;99.90
52543;DHT22;38449;52.696;6.186;2024-01-27T06:36:01;1.50;99.90
52543;DHT22;38449;52.696;6.186;2024-01-27T06:38:27;1.60;99.90
52543;DHT22;38449;52.696;6.186;2024-01-27T06:40:54;1.50;99.90
52543;DHT22;38449;52.696;6.186;2024-01-27T06:43:20;1.50;99.90
52543;DHT22;38449;52.696;6.186;2024-01-27T06:45:46;1.50;99.90
52543;DHT22;38449;52.696;6.186;2024-01-27T06:48:13;1.60;99.90
52543;DHT22;38449;52.696;6.186;2024-01-27T06:50:40;1.50;99.90
52543;DHT22;38449;52.696;6.186;2024-01-27T06:53:06;1.50;99.90
52543;DHT22;38449;52.696;6.186;2024-01-27T06:55:32;1.70;99.90
52543;DHT22;38449;52.696;6.186;2024-01-27T06:57:59;1.50;99.90
52543;DHT22;38449;52.696;6.186;2024-01-27T07:00:25;1.60;99.90
52543;DHT22;38449;52.696;6.186;2024-01-27T07:02:51;1.60;99.90
52543;DHT22;38449;52.696;6.186;2024-01-27T07:05:18;1.60;99.90
52543;DHT22;38449;52.696;6.186;2024-01-27T07:07:44;1.40;99.90
52543;DHT22;38449;52.696;6.186;2024-01-27T07:10:10;1.50;99.90
52543;DHT22;38449;52.696;6.186;2024-01-27T07:12:36;1.60;99.90
52543;DHT22;38449;52.696;6.186;2024-01-27T07:15:03;1.60;99.90
52543;DHT22;38449;52.696;6.186;2024-01-27T07:17:32;1.60;99.90
52543;DHT22;38449;52.696;6.186;2024-01-27T07:19:58;1.40;99.90
52543;DHT22;38449;52.696;6.186;2024-01-27T07:22:25;1.60;99.90
52543;DHT22;38449;52.696;6.186;2024-01-27T07:24:52;1.70;99.90
52543;DHT22;38449;52.696;6.186;2024-01-27T07:27:18;1.70;99.90
52543;DHT22;38449;52.696;6.186;2024-01-27T07:29:45;1.70;99.90
52543;DHT22;38449;52.696;6.186;2024-01-27T07:32:11;1.50;99.90
52543;DHT22;38449;52.696;6.186;2024-01-27T07:34:45;1.50;99.90
52543;DHT22;38449;52.696;6.186;2024-01-27T07:37:11;1.50;99.90
52543;DHT22;38449;52.696;6.186;2024-01-27T07:39:37;1.70;99.90
52543;DHT22;38449;52.696;6.186;2024-01-27T07:42:04;1.70;99.90
52543;DHT22;38449;52.696;6.186;2024-01-27T07:44:30;1.50;99.90
52543;DHT22;38449;52.696;6.186;2024-01-27T07:46:56;1.50;99.90
52543;DHT22;38449;52.696;6.186;2024-01-27T07:49:22;1.60;99.90
52543;DHT22;38449;52.696;6.186;2024-01-27T07:51:49;1.70;99.90
52543;DHT22;38449;52.696;6.186;2024-01-27T07:54:16;1.50;99.90
52543;DHT22;38449;52.696;6.186;2024-01-27T07:56:42;1.50;99.90
52543;DHT22;38449;52.696;6.186;2024-01-27T07:59:09;1.60;99.90
52543;DHT22;38449;52.696;6.186;2024-01-27T08:01:40;1.70;99.90
52543;DHT22;38449;52.696;6.186;2024-01-27T08:04:07;1.60;99.90
52543;DHT22;38449;52.696;6.186;2024-01-27T08:06:34;1.80;99.90
52543;DHT22;38449;52.696;6.186;2024-01-27T08:09:00;1.60;99.90
52543;DHT22;38449;52.696;6.186;2024-01-27T08:11:27;2.00;99.90
52543;DHT22;38449;52.696;6.186;2024-01-27T08:13:53;1.70;99.90
52543;DHT22;38449;52.696;6.186;2024-01-27T08:16:20;1.60;99.90
52543;DHT22;38449;52.696;6.186;2024-01-27T08:18:46;1.70;99.90
52543;DHT22;38449;52.696;6.186;2024-01-27T08:21:12;2.00;99.90
52543;DHT22;38449;52.696;6.186;2024-01-27T08:23:39;1.80;99.90
52543;DHT22;38449;52.696;6.186;2024-01-27T08:26:06;2.10;99.90
52543;DHT22;38449;52.696;6.186;2024-01-27T08:28:32;2.20;99.90
52543;DHT22;38449;52.696;6.186;2024-01-27T08:30:58;2.30;99.90
52543;DHT22;38449;52.696;6.186;2024-01-27T08:33:25;2.30;99.90
52543;DHT22;38449;52.696;6.186;2024-01-27T08:35:52;2.40;99.90
52543;DHT22;38449;52.696;6.186;2024-01-27T08:38:18;2.20;99.90
52543;DHT22;38449;52.696;6.186;2024-01-27T08:40:44;2.40;99.90
52543;DHT22;38449;52.696;6.186;2024-01-27T08:43:11;2.50;99.90
52543;DHT22;38449;52.696;6.186;2024-01-27T08:45:37;2.40;99.90
52543;DHT22;38449;52.696;6.186;2024-01-27T08:48:07;2.70;99.90
52543;DHT22;38449;52.696;6.186;2024-01-27T08:50:34;2.70;99.90
52543;DHT22;38449;52.696;6.186;2024-01-27T08:53:00;2.50;99.90
52543;DHT22;38449;52.696;6.186;2024-01-27T08:55:28;2.80;99.90
52543;DHT22;38449;52.696;6.186;2024-01-27T08:57:56;2.80;99.90
52543;DHT22;38449;52.696;6.186;2024-01-27T09:00:22;2.70;99.90
52543;DHT22;38449;52.696;6.186;2024-01-27T09:02:51;2.80;99.90
52543;DHT22;38449;52.696;6.186;2024-01-27T09:05:17;3.10;99.90
52543;DHT22;38449;52.696;6.186;2024-01-27T09:07:43;3.30;99.90
52543;DHT22;38449;52.696;6.186;2024-01-27T09:10:10;3.30;99.90
52543;DHT22;38449;52.696;6.186;2024-01-27T09:12:38;3.40;99.90
52543;DHT22;38449;52.696;6.186;2024-01-27T09:15:06;3.30;99.90
52543;DHT22;38449;52.696;6.186;2024-01-27T09:17:34;3.40;99.90
52543;DHT22;38449;52.696;6.186;2024-01-27T09:20:00;3.30;99.90
52543;DHT22;38449;52.696;6.186;2024-01-27T09:22:29;3.50;99.90
52543;DHT22;38449;52.696;6.186;2024-01-27T09:24:55;3.50;99.90
52543;DHT22;38449;52.696;6.186;2024-01-27T09:27:22;3.50;99.90
52543;DHT22;38449;52.696;6.186;2024-01-27T09:29:48;3.60;99.90
52543;DHT22;38449;52.696;6.186;2024-01-27T09:32:14;3.70;99.90
52543;DHT22;38449;52.696;6.186;2024-01-27T09:34:42;3.80;99.90
52543;DHT22;38449;52.696;6.186;2024-01-27T09:37:08;4.10;99.90
52543;DHT22;38449;52.696;6.186;2024-01-27T09:39:34;4.00;99.90
52543;DHT22;38449;52.696;6.186;2024-01-27T09:42:05;4.00;99.90
52543;DHT22;38449;52.696;6.186;2024-01-27T09:44:36;4.30;99.90
52543;DHT22;38449;52.696;6.186;2024-01-27T09:47:03;4.20;99.90
52543;DHT22;38449;52.696;6.186;2024-01-27T09:49:31;4.20;99.90
52543;DHT22;38449;52.696;6.186;2024-01-27T09:51:57;4.30;99.90
52543;DHT22;38449;52.696;6.186;2024-01-27T09:54:27;4.50;99.90
52543;DHT22;38449;52.696;6.186;2024-01-27T09:56:54;4.40;99.90
52543;DHT22;38449;52.696;6.186;2024-01-27T09:59:21;4.80;99.90
52543;DHT22;38449;52.696;6.186;2024-01-27T10:01:48;4.80;99.90
52543;DHT22;38449;52.696;6.186;2024-01-27T10:04:19;4.80;99.90
52543;DHT22;38449;52.696;6.186;2024-01-27T10:06:50;5.00;99.90
52543;DHT22;38449;52.696;6.186;2024-01-27T10:09:17;4.90;99.90
52543;DHT22;38449;52.696;6.186;2024-01-27T10:11:46;4.90;99.90
52543;DHT22;38449;52.696;6.186;2024-01-27T10:14:17;5.00;99.90
52543;DHT22;38449;52.696;6.186;2024-01-27T10:16:44;5.20;99.90
52543;DHT22;38449;52.696;6.186;2024-01-27T10:19:18;5.10;99.90
52543;DHT22;38449;52.696;6.186;2024-01-27T10:21:45;5.30;99.90
52543;DHT22;38449;52.696;6.186;2024-01-27T10:24:12;5.40;99.90
52543;DHT22;38449;52.696;6.186;2024-01-27T10:26:38;5.50;99.90
52543;DHT22;38449;52.696;6.186;2024-01-27T10:29:05;5.30;99.90
52543;DHT22;38449;52.696;6.186;2024-01-27T10:31:33;5.50;99.90
52543;DHT22;38449;52.696;6.186;2024-01-27T10:34:00;5.30;99.90
52543;DHT22;38449;52.696;6.186;2024-01-27T10:36:42;5.60;99.90
52543;DHT22;38449;52.696;6.186;2024-01-27T10:39:22;5.50;99.90
52543;DHT22;38449;52.696;6.186;2024-01-27T10:41:50;5.50;99.90
52543;DHT22;38449;52.696;6.186;2024-01-27T10:44:18;5.70;99.90
52543;DHT22;38449;52.696;6.186;2024-01-27T10:46:45;5.50;99.90
52543;DHT22;38449;52.696;6.186;2024-01-27T10:49:16;5.60;99.90
52543;DHT22;38449;52.696;6.186;2024-01-27T10:51:53;5.70;99.90
52543;DHT22;38449;52.696;6.186;2024-01-27T10:54:27;5.80;99.90
52543;DHT22;38449;52.696;6.186;2024-01-27T10:56:56;5.70;99.90
52543;DHT22;38449;52.696;6.186;2024-01-27T10:59:30;6.00;99.90
52543;DHT22;38449;52.696;6.186;2024-01-27T11:01:58;6.10;99.90
52543;DHT22;38449;52.696;6.186;2024-01-27T11:04:25;6.00;99.90
52543;DHT22;38449;52.696;6.186;2024-01-27T11:06:53;6.20;99.90
52543;DHT22;38449;52.696;6.186;2024-01-27T11:09:24;6.00;99.90
52543;DHT22;38449;52.696;6.186;2024-01-27T11:11:51;6.10;99.90
52543;DHT22;38449;52.696;6.186;2024-01-27T11:14:18;6.30;99.90
52543;DHT22;38449;52.696;6.186;2024-01-27T11:16:44;6.30;99.90
52543;DHT22;38449;52.696;6.186;2024-01-27T11:19:17;6.30;99.90
52543;DHT22;38449;52.696;6.186;2024-01-27T11:21:45;6.20;99.90
52543;DHT22;38449;52.696;6.186;2024-01-27T11:24:18;6.40;99.90
52543;DHT22;38449;52.696;6.186;2024-01-27T11:26:45;6.40;99.90
52543;DHT22;38449;52.696;6.186;2024-01-27T11:29:11;6.60;99.90
52543;DHT22;38449;52.696;6.186;2024-01-27T11:31:46;6.40;99.90
52543;DHT22;38449;52.696;6.186;2024-01-27T11:34:13;6.70;99.90
52543;DHT22;38449;52.696;6.186;2024-01-27T11:36:43;6.70;99.90
52543;DHT22;38449;52.696;6.186;2024-01-27T11:39:29;6.50;99.90
52543;DHT22;38449;52.696;6.186;2024-01-27T11:42:06;6.80;99.90
52543;DHT22;38449;52.696;6.186;2024-01-27T11:44:36;6.80;99.90
52543;DHT22;38449;52.696;6.186;2024-01-27T11:47:04;6.80;99.90
52543;DHT22;38449;52.696;6.186;2024-01-27T11:49:30;6.70;99.90
52543;DHT22;38449;52.696;6.186;2024-01-27T11:51:57;7.00;99.90
52543;DHT22;38449;52.696;6.186;2024-01-27T11:54:26;6.80;99.90
52543;DHT22;38449;52.696;6.186;2024-01-27T11:56:52;7.10;99.90
52543;DHT22;38449;52.696;6.186;2024-01-27T11:59:21;7.10;99.90
52543;DHT22;38449;52.696;6.186;2024-01-27T12:01:47;7.10;99.90
52543;DHT22;38449;52.696;6.186;2024-01-27T12:04:14;7.10;99.90
52543;DHT22;38449;52.696;6.186;2024-01-27T12:06:43;7.10;99.90
52543;DHT22;38449;52.696;6.186;2024-01-27T12:09:09;7.10;99.90
52543;DHT22;38449;52.696;6.186;2024-01-27T12:11:39;7.20;99.90
52543;DHT22;38449;52.696;6.186;2024-01-27T12:14:08;7.00;99.90
52543;DHT22;38449;52.696;6.186;2024-01-27T12:16:34;7.10;99.90
52543;DHT22;38449;52.696;6.186;2024-01-27T12:19:02;7.20;99.90
52543;DHT22;38449;52.696;6.186;2024-01-27T12:21:29;7.30;99.90
52543;DHT22;38449;52.696;6.186;2024-01-27T12:23:56;7.10;99.90
52543;DHT22;38449;52.696;6.186;2024-01-27T12:26:27;7.20;99.90
52543;DHT22;38449;52.696;6.186;2024-01-27T12:28:55;7.30;99.90
52543;DHT22;38449;52.696;6.186;2024-01-27T12:31:25;7.40;99.90
52543;DHT22;38449;52.696;6.186;2024-01-27T12:33:56;7.30;99.90
52543;DHT22;38449;52.696;6.186;2024-01-27T12:36:25;7.50;99.90
52543;DHT22;38449;52.696;6.186;2024-01-27T12:38:59;7.30;99.90
52543;DHT22;38449;52.696;6.186;2024-01-27T12:41:26;7.40;99.90
52543;DHT22;38449;52.696;6.186;2024-01-27T12:43:54;7.30;99.90
52543;DHT22;38449;52.696;6.186;2024-01-27T12:46:20;7.30;99.90
52543;DHT22;38449;52.696;6.186;2024-01-27T12:48:47;7.40;99.90
52543;DHT22;38449;52.696;6.186;2024-01-27T12:51:15;7.50;99.90
52543;DHT22;38449;52.696;6.186;2024-01-27T12:53:43;7.40;99.90
52543;DHT22;38449;52.696;6.186;2024-01-27T12:56:14;7.50;99.90
52543;DHT22;38449;52.696;6.186;2024-01-27T12:58:42;7.40;99.90
52543;DHT22;38449;52.696;6.186;2024-01-27T13:01:12;7.50;99.90
52543;DHT22;38449;52.696;6.186;2024-01-27T13:03:40;7.60;99.90
52543;DHT22;38449;52.696;6.186;2024-01-27T13:06:06;7.40;99.90
52543;DHT22;38449;52.696;6.186;2024-01-27T13:08:32;7.60;99.90
52543;DHT22;38449;52.696;6.186;2024-01-27T13:10:59;7.50;99.90
52543;DHT22;38449;52.696;6.186;2024-01-27T13:13:25;7.50;99.90
52543;DHT22;38449;52.696;6.186;2024-01-27T13:15:52;7.50;99.90
52543;DHT22;38449;52.696;6.186;2024-01-27T13:18:18;7.60;99.90
52543;DHT22;38449;52.696;6.186;2024-01-27T13:20:44;7.50;99.90
52543;DHT22;38449;52.696;6.186;2024-01-27T13:23:11;7.60;99.90
52543;DHT22;38449;52.696;6.186;2024-01-27T13:25:37;7.60;99.90
52543;DHT22;38449;52.696;6.186;2024-01-27T13:28:04;7.60;99.90
52543;DHT22;38449;52.696;6.186;2024-01-27T13:30:32;7.50;99.90
52543;DHT22;38449;52.696;6.186;2024-01-27T13:33:00;7.60;99.90
52543;DHT22;38449;52.696;6.186;2024-01-27T13:35:26;7.60;99.90
52543;DHT22;38449;52.696;6.186;2024-01-27T13:37:52;7.50;99.90
52543;DHT22;38449;52.696;6.186;2024-01-27T13:40:19;7.60;99.90
52543;DHT22;38449;52.696;6.186;2024-01-27T13:42:45;7.40;99.90
52543;DHT22;38449;52.696;6.186;2024-01-27T13:45:12;7.60;99.90
52543;DHT22;38449;52.696;6.186;2024-01-27T13:47:38;7.50;99.90
52543;DHT22;38449;52.696;6.186;2024-01-27T13:50:05;7.50;99.90
52543;DHT22;38449;52.696;6.186;2024-01-27T13:52:32;7.50;99.90
52543;DHT22;38449;52.696;6.186;2024-01-27T13:54:58;7.50;99.90
52543;DHT22;38449;52.696;6.186;2024-01-27T13:57:25;7.40;99.90
52543;DHT22;38449;52.696;6.186;2024-01-27T13:59:51;7.40;99.90
52543;DHT22;38449;52.696;6.186;2024-01-27T14:02:18;7.50;99.90
52543;DHT22;38449;52.696;6.186;2024-01-27T14:04:44;7.60;99.90
52543;DHT22;38449;52.696;6.186;2024-01-27T14:07:11;7.60;99.90
52543;DHT22;38449;52.696;6.186;2024-01-27T14:09:38;7.50;99.90
52543;DHT22;38449;52.696;6.186;2024-01-27T14:12:05;7.80;99.90
52543;DHT22;38449;52.696;6.186;2024-01-27T14:14:31;8.00;99.90
52543;DHT22;38449;52.696;6.186;2024-01-27T14:16:57;8.10;99.90
52543;DHT22;38449;52.696;6.186;2024-01-27T14:19:24;8.30;99.90
52543;DHT22;38449;52.696;6.186;2024-01-27T14:21:50;8.30;99.90
52543;DHT22;38449;52.696;6.186;2024-01-27T14:24:16;8.40;99.90
52543;DHT22;38449;52.696;6.186;2024-01-27T14:26:43;8.70;99.90
52543;DHT22;38449;52.696;6.186;2024-01-27T14:29:09;8.80;99.90
52543;DHT22;38449;52.696;6.186;2024-01-27T14:31:36;8.70;99.90
52543;DHT22;38449;52.696;6.186;2024-01-27T14:34:02;8.70;99.90
52543;DHT22;38449;52.696;6.186;2024-01-27T14:36:29;8.70;99.90
52543;DHT22;38449;52.696;6.186;2024-01-27T14:38:56;8.50;99.90
52543;DHT22;38449;52.696;6.186;2024-01-27T14:41:22;8.30;99.90
52543;DHT22;38449;52.696;6.186;2024-01-27T14:43:49;8.10;99.90
52543;DHT22;38449;52.696;6.186;2024-01-27T14:46:18;7.90;99.90
52543;DHT22;38449;52.696;6.186;2024-01-27T14:48:44;7.70;99.90
52543;DHT22;38449;52.696;6.186;2024-01-27T14:51:12;7.60;99.90
52543;DHT22;38449;52.696;6.186;2024-01-27T14:53:39;7.50;99.90
52543;DHT22;38449;52.696;6.186;2024-01-27T14:56:05;7.50;99.90
52543;DHT22;38449;52.696;6.186;2024-01-27T14:58:32;7.40;99.90
52543;DHT22;38449;52.696;6.186;2024-01-27T15:01:01;7.30;99.90
52543;DHT22;38449;52.696;6.186;2024-01-27T15:03:28;7.20;99.90
52543;DHT22;38449;52.696;6.186;2024-01-27T15:05:54;7.10;99.90
52543;DHT22;38449;52.696;6.186;2024-01-27T15:08:22;7.00;99.90
52543;DHT22;38449;52.696;6.186;2024-01-27T15:10:49;7.00;99.90
52543;DHT22;38449;52.696;6.186;2024-01-27T15:13:16;6.90;99.90
52543;DHT22;38449;52.696;6.186;2024-01-27T15:15:46;7.00;99.90
52543;DHT22;38449;52.696;6.186;2024-01-27T15:18:13;6.90;99.90
52543;DHT22;38449;52.696;6.186;2024-01-27T15:20:40;6.80;99.90
52543;DHT22;38449;52.696;6.186;2024-01-27T15:23:06;6.80;99.90
52543;DHT22;38449;52.696;6.186;2024-01-27T15:25:32;6.60;99.90
52543;DHT22;38449;52.696;6.186;2024-01-27T15:27:59;6.60;99.90
52543;DHT22;38449;52.696;6.186;2024-01-27T15:30:27;6.60;99.90
52543;DHT22;38449;52.696;6.186;2024-01-27T15:32:55;6.60;99.90
52543;DHT22;38449;52.696;6.186;2024-01-27T15:35:21;6.50;99.90
52543;DHT22;38449;52.696;6.186;2024-01-27T15:37:47;6.50;99.90
52543;DHT22;38449;52.696;6.186;2024-01-27T15:40:14;6.50;99.90
52543;DHT22;38449;52.696;6.186;2024-01-27T15:42:40;6.50;99.90
52543;DHT22;38449;52.696;6.186;2024-01-27T15:45:06;6.50;99.90